createdAt,value
2023-01-09T00:01:30.314Z,101313.53
2023-01-09T00:03:58.081Z,101301.53
2023-01-09T00:06:25.566Z,101307.53
2023-01-09T00:08:53.446Z,101297.19
2023-01-09T00:11:21.149Z,101304.91
2023-01-09T00:13:48.713Z,101294.63
2023-01-09T00:16:16.261Z,101293.75
2023-01-09T00:18:43.927Z,101286.00
2023-01-09T00:21:13.471Z,101298.91
2023-01-09T00:23:41.097Z,101280.03
2023-01-09T00:26:15.456Z,101272.28
2023-01-09T00:28:43.204Z,101286.88
2023-01-09T00:31:11.595Z,101290.31
2023-01-09T00:33:49.021Z,101286.84
2023-01-09T00:36:16.804Z,101281.72
2023-01-09T00:38:44.434Z,101280.84
2023-01-09T00:41:16.893Z,101275.72
2023-01-09T00:43:51.666Z,101268.84
2023-01-09T00:46:22.981Z,101273.13
2023-01-09T00:48:51.315Z,101267.97
2023-01-09T00:51:20.443Z,101275.72
2023-01-09T00:53:50.861Z,101284.31
2023-01-09T00:56:20.586Z,101264.53
2023-01-09T00:58:49.050Z,101261.97
2023-01-09T01:01:16.941Z,101255.97
2023-01-09T01:03:44.907Z,101256.84
2023-01-09T01:06:31.224Z,101257.69
2023-01-09T01:08:58.673Z,101234.53
2023-01-09T01:11:26.363Z,101239.69
2023-01-09T01:13:54.335Z,101237.09
2023-01-09T01:16:22.041Z,101233.66
2023-01-09T01:18:50.531Z,101231.09
2023-01-09T01:21:18.425Z,101231.09
2023-01-09T01:23:46.224Z,101227.63
2023-01-09T01:26:16.490Z,101231.09
2023-01-09T01:28:44.514Z,101231.94
2023-01-09T01:31:19.812Z,101231.09
2023-01-09T01:33:47.610Z,101236.25
2023-01-09T01:36:17.578Z,101230.22
2023-01-09T01:38:46.948Z,101227.66
2023-01-09T01:41:14.867Z,101227.66
2023-01-09T01:44:33.469Z,101207.03
2023-01-09T01:47:01.445Z,101222.50
2023-01-09T01:49:29.029Z,101213.91
2023-01-09T01:51:56.728Z,101213.91
2023-01-09T01:54:29.061Z,101209.63
2023-01-09T01:57:01.274Z,101210.47
2023-01-09T01:59:35.163Z,101215.63
2023-01-09T02:02:03.641Z,101202.75
2023-01-09T02:04:34.348Z,101207.03
2023-01-09T02:07:05.296Z,101216.50
2023-01-09T02:09:32.851Z,101209.59
2023-01-09T02:12:01.340Z,101202.72
2023-01-09T02:14:32.138Z,101207.88
2023-01-09T02:17:20.789Z,101205.31
2023-01-09T02:20:20.007Z,101196.69
2023-01-09T02:23:15.879Z,101190.69
2023-01-09T02:26:04.982Z,101179.50
2023-01-09T02:28:51.624Z,101185.50
2023-01-09T02:31:29.615Z,101177.81
2023-01-09T02:34:32.301Z,101171.78
2023-01-09T02:37:17.697Z,101160.59
2023-01-09T02:39:57.251Z,101168.31
2023-01-09T02:42:27.078Z,101163.16
2023-01-09T02:44:54.568Z,101166.59
2023-01-09T02:47:21.984Z,101155.44
2023-01-09T02:49:54.190Z,101157.16
2023-01-09T02:52:44.517Z,101150.28
2023-01-09T02:55:37.988Z,101154.59
2023-01-09T02:58:23.961Z,101158.88
2023-01-09T03:01:04.962Z,101156.31
2023-01-09T03:04:01.326Z,101157.16
2023-01-09T03:06:28.898Z,101159.72
2023-01-09T03:09:02.976Z,101152.84
2023-01-09T03:11:37.902Z,101164.03
2023-01-09T03:14:12.013Z,101148.56
2023-01-09T03:16:39.764Z,101163.13
2023-01-09T03:19:16.911Z,101158.84
2023-01-09T03:21:46.486Z,101151.09
2023-01-09T03:24:14.463Z,101146.78
2023-01-09T03:26:42.506Z,101146.81
2023-01-09T03:29:10.544Z,101145.94
2023-01-09T03:31:38.153Z,101169.16
2023-01-09T03:34:05.610Z,101140.78
2023-01-09T03:36:33.674Z,101143.34
2023-01-09T03:39:01.402Z,101138.19
2023-01-09T03:41:29.059Z,101133.03
2023-01-09T03:43:56.540Z,101142.50
2023-01-09T03:46:24.003Z,101136.47
2023-01-09T03:48:51.448Z,101125.31
2023-01-09T03:51:18.991Z,101116.69
2023-01-09T03:53:46.448Z,101120.13
2023-01-09T03:56:13.950Z,101107.22
2023-01-09T03:58:42.088Z,101108.09
2023-01-09T04:01:12.753Z,101107.25
2023-01-09T04:03:40.551Z,101114.09
2023-01-09T04:06:08.129Z,101102.06
2023-01-09T04:08:36.151Z,101110.66
2023-01-09T04:11:03.747Z,101096.06
2023-01-09T04:13:31.490Z,101113.22
2023-01-09T04:15:59.064Z,101109.78
2023-01-09T04:18:26.963Z,101107.22
2023-01-09T04:20:55.538Z,101107.22
2023-01-09T04:23:23.158Z,101099.50
2023-01-09T04:25:50.713Z,101107.25
2023-01-09T04:28:18.200Z,101104.66
2023-01-09T04:30:45.721Z,101093.47
2023-01-09T04:33:13.103Z,101096.91
2023-01-09T04:35:43.230Z,101095.19
2023-01-09T04:38:11.000Z,101094.31
2023-01-09T04:40:39.675Z,101103.81
2023-01-09T04:43:07.486Z,101108.97
2023-01-09T04:45:34.960Z,101102.94
2023-01-09T04:48:02.755Z,101096.06
2023-01-09T04:50:31.458Z,101104.66
2023-01-09T04:52:59.370Z,101099.50
2023-01-09T04:55:27.211Z,101102.94
2023-01-09T04:57:54.815Z,101101.22
2023-01-09T05:00:22.437Z,101099.53
2023-01-09T05:02:50.080Z,101099.50
2023-01-09T05:05:17.499Z,101095.22
2023-01-09T05:07:45.268Z,101104.66
2023-01-09T05:10:13.398Z,101098.69
2023-01-09T05:12:41.224Z,101102.09
2023-01-09T05:15:09.557Z,101097.78
2023-01-09T05:17:36.999Z,101101.28
2023-01-09T05:20:05.345Z,101101.28
2023-01-09T05:22:32.965Z,101095.22
2023-01-09T05:25:00.818Z,101090.06
2023-01-09T05:27:30.368Z,101101.25
2023-01-09T05:29:58.346Z,101104.72
2023-01-09T05:32:26.235Z,101098.69
2023-01-09T05:34:54.031Z,101114.13
2023-01-09T05:37:21.760Z,101103.84
2023-01-09T05:39:49.258Z,101098.69
2023-01-09T05:42:16.843Z,101099.53
2023-01-09T05:44:44.356Z,101102.97
2023-01-09T05:47:11.911Z,101103.81
2023-01-09T05:49:39.511Z,101108.97
2023-01-09T05:52:08.012Z,101099.53
2023-01-09T05:54:35.510Z,101102.97
2023-01-09T05:57:03.082Z,101106.41
2023-01-09T05:59:30.663Z,101105.53
2023-01-09T06:01:58.226Z,101114.13
2023-01-09T06:04:29.818Z,101111.56
2023-01-09T06:06:57.771Z,101123.59
2023-01-09T06:09:25.575Z,101121.00
2023-01-09T06:11:54.840Z,101121.88
2023-01-09T06:14:23.039Z,101100.38
2023-01-09T06:16:51.201Z,101121.88
2023-01-09T06:19:19.086Z,101129.63
2023-01-09T06:21:47.144Z,101120.19
2023-01-09T06:24:14.636Z,101118.44
2023-01-09T06:26:42.122Z,101126.19
2023-01-09T06:29:09.673Z,101124.44
2023-01-09T06:31:37.610Z,101117.59
2023-01-09T06:34:05.355Z,101125.31
2023-01-09T06:36:33.077Z,101124.44
2023-01-09T06:39:00.988Z,101117.59
2023-01-09T06:41:28.684Z,101125.28
2023-01-09T06:43:56.163Z,101122.72
2023-01-09T06:46:23.736Z,101127.03
2023-01-09T06:48:51.411Z,101139.94
2023-01-09T06:51:19.110Z,101128.75
2023-01-09T06:53:46.730Z,101137.34
2023-01-09T06:56:14.471Z,101133.91
2023-01-09T06:58:42.409Z,101143.34
2023-01-09T07:01:10.028Z,101139.06
2023-01-09T07:03:38.361Z,101151.91
2023-01-09T07:06:06.952Z,101145.91
2023-01-09T07:08:34.894Z,101151.09
2023-01-09T07:11:02.659Z,101148.50
2023-01-09T07:13:30.437Z,101145.91
2023-01-09T07:15:58.253Z,101153.66
2023-01-09T07:18:26.057Z,101147.63
2023-01-09T07:20:53.588Z,101150.22
2023-01-09T07:23:21.015Z,101147.66
2023-01-09T07:25:50.974Z,101146.78
2023-01-09T07:28:18.808Z,101151.94
2023-01-09T07:30:46.547Z,101151.94
2023-01-09T07:33:14.127Z,101145.91
2023-01-09T07:35:41.881Z,101150.22
2023-01-09T07:38:09.748Z,101163.13
2023-01-09T07:40:38.295Z,101147.63
2023-01-09T07:43:05.961Z,101148.50
2023-01-09T07:45:33.722Z,101151.91
2023-01-09T07:48:01.628Z,101158.78
2023-01-09T07:50:29.221Z,101153.66
2023-01-09T07:52:56.892Z,101158.78
2023-01-09T07:55:24.628Z,101157.94
2023-01-09T07:57:52.704Z,101168.22
2023-01-09T08:00:21.224Z,101165.66
2023-01-09T08:02:53.690Z,101165.66
2023-01-09T08:05:21.877Z,101161.34
2023-01-09T08:07:51.441Z,101166.50
2023-01-09T08:10:20.319Z,101164.78
2023-01-09T08:12:49.137Z,101169.09
2023-01-09T08:15:17.240Z,101172.50
2023-01-09T08:17:45.915Z,101169.06
2023-01-09T08:20:15.485Z,101166.50
2023-01-09T08:22:44.489Z,101160.44
2023-01-09T08:25:12.811Z,101156.16
2023-01-09T08:27:41.026Z,101158.75
2023-01-09T08:30:09.921Z,101153.56
2023-01-09T08:32:37.974Z,101163.88
2023-01-09T08:35:06.227Z,101157.84
2023-01-09T08:37:33.755Z,101154.41
2023-01-09T08:40:01.442Z,101155.28
2023-01-09T08:42:47.608Z,101163.00
2023-01-09T08:45:33.654Z,101156.13
2023-01-09T08:48:01.173Z,101150.94
2023-01-09T08:50:28.846Z,101148.34
2023-01-09T08:52:56.378Z,101153.53
2023-01-09T08:55:23.857Z,101145.78
2023-01-09T08:57:53.316Z,101151.81
2023-01-09T09:00:23.589Z,101160.41
2023-01-09T09:02:53.201Z,101148.34
2023-01-09T09:05:21.930Z,101150.91
2023-01-09T09:07:51.024Z,101147.47
2023-01-09T09:10:18.928Z,101153.53
2023-01-09T09:12:51.841Z,101147.47
2023-01-09T09:15:26.568Z,101145.75
2023-01-09T09:18:05.407Z,101150.03
2023-01-09T09:20:35.819Z,101146.56
2023-01-09T09:23:03.981Z,101149.16
2023-01-09T09:25:31.958Z,101137.09
2023-01-09T09:28:01.260Z,101131.94
2023-01-09T09:30:28.857Z,101129.34
2023-01-09T09:32:56.637Z,101133.63
2023-01-09T09:35:24.849Z,101129.31
2023-01-09T09:37:57.641Z,101131.00
2023-01-09T09:40:32.719Z,101132.72
2023-01-09T09:43:43.433Z,101128.44
2023-01-09T09:46:42.610Z,101125.00
2023-01-09T09:49:28.843Z,101123.25
2023-01-09T09:52:20.787Z,101120.63
2023-01-09T09:54:51.262Z,101118.06
2023-01-09T09:57:27.938Z,101109.44
2023-01-09T09:59:56.527Z,101114.59
2023-01-09T10:02:30.392Z,101118.84
2023-01-09T10:05:07.944Z,101112.03
2023-01-09T10:07:42.575Z,101110.25
2023-01-09T10:10:22.689Z,101107.66
2023-01-09T10:12:57.157Z,101121.41
2023-01-09T10:15:44.729Z,101116.25
2023-01-09T10:18:30.804Z,101120.53
2023-01-09T10:21:15.807Z,101110.13
2023-01-09T10:24:07.697Z,101111.00
2023-01-09T10:26:46.718Z,101120.47
2023-01-09T10:29:22.637Z,101106.72
2023-01-09T10:32:06.375Z,101116.19
2023-01-09T10:34:46.895Z,101117.06
2023-01-09T10:37:26.959Z,101113.59
2023-01-09T10:40:13.768Z,101114.44
2023-01-09T10:42:49.886Z,101120.44
2023-01-09T10:45:50.980Z,101120.38
2023-01-09T10:48:26.599Z,101116.94
2023-01-09T10:50:56.240Z,101116.06
2023-01-09T10:53:39.884Z,101112.63
2023-01-09T10:56:39.827Z,101108.31
2023-01-09T10:59:09.894Z,101109.13
2023-01-09T11:01:39.937Z,101106.56
2023-01-09T11:04:19.676Z,101113.41
2023-01-09T11:06:52.846Z,101105.63
2023-01-09T11:09:20.724Z,101108.19
2023-01-09T11:11:48.601Z,101107.38
2023-01-09T11:14:19.054Z,101111.69
2023-01-09T11:17:01.267Z,101102.22
2023-01-09T11:19:31.143Z,101109.06
2023-01-09T11:22:18.663Z,101101.31
2023-01-09T11:24:59.447Z,101110.81
2023-01-09T11:27:27.644Z,101105.59
2023-01-09T11:30:16.711Z,101109.84
2023-01-09T11:32:45.471Z,101110.75
2023-01-09T11:35:23.008Z,101105.56
2023-01-09T11:38:01.343Z,101096.94
2023-01-09T11:40:31.863Z,101097.75
2023-01-09T11:43:25.703Z,101104.69
2023-01-09T11:46:01.646Z,101100.38
2023-01-09T11:48:32.743Z,101096.03
2023-01-09T11:51:02.715Z,101092.59
2023-01-09T11:53:45.654Z,101087.44
2023-01-09T11:56:15.273Z,101093.47
2023-01-09T11:58:43.698Z,101084.84
2023-01-09T12:01:17.174Z,101090.00
2023-01-09T12:04:18.347Z,101095.22
2023-01-09T12:07:10.531Z,101087.47
2023-01-09T12:10:02.714Z,101102.09
2023-01-09T12:12:43.824Z,101102.94
2023-01-09T12:15:26.753Z,101097.75
2023-01-09T12:18:28.565Z,101100.31
2023-01-09T12:21:44.371Z,101089.19
2023-01-09T12:24:18.158Z,101089.97
2023-01-09T12:26:52.860Z,101083.13
2023-01-09T12:29:57.699Z,101085.66
2023-01-09T12:32:39.745Z,101087.47
2023-01-09T12:35:32.649Z,101088.28
2023-01-09T12:38:09.049Z,101085.72
2023-01-09T12:40:50.455Z,101089.16
2023-01-09T12:43:20.058Z,101092.59
2023-01-09T12:46:05.738Z,101079.69
2023-01-09T12:49:23.166Z,101082.31
2023-01-09T12:52:01.420Z,101082.28
2023-01-09T12:54:37.259Z,101076.28
2023-01-09T12:57:29.355Z,101074.53
2023-01-09T13:00:15.129Z,101078.81
2023-01-09T13:02:48.556Z,101071.94
2023-01-09T13:05:23.320Z,101078.84
2023-01-09T13:08:01.647Z,101078.00
2023-01-09T13:10:34.184Z,101083.19
2023-01-09T13:13:10.534Z,101096.00
2023-01-09T13:15:45.866Z,101092.63
2023-01-09T13:18:35.195Z,101088.31
2023-01-09T13:21:04.195Z,101088.34
2023-01-09T13:24:03.069Z,101093.50
2023-01-09T13:26:42.554Z,101088.34
2023-01-09T13:29:16.305Z,101090.91
2023-01-09T13:32:10.340Z,101105.56
2023-01-09T13:34:39.614Z,101084.94
2023-01-09T13:37:22.629Z,101097.81
2023-01-09T13:40:02.953Z,101085.75
2023-01-09T13:42:36.961Z,101092.66
2023-01-09T13:45:22.915Z,101092.66
2023-01-09T13:48:17.770Z,101101.28
2023-01-09T13:50:47.241Z,101099.50
2023-01-09T13:53:17.663Z,101095.22
2023-01-09T13:55:57.431Z,101096.91
2023-01-09T13:58:37.533Z,101092.69
2023-01-09T14:01:25.018Z,101103.88
2023-01-09T14:04:10.495Z,101101.28
2023-01-09T14:06:38.343Z,101098.69
2023-01-09T14:09:24.650Z,101096.13
2023-01-09T14:12:04.829Z,101100.38
2023-01-09T14:14:34.985Z,101104.69
2023-01-09T14:17:15.011Z,101117.63
2023-01-09T14:19:43.240Z,101109.03
2023-01-09T14:22:55.841Z,101111.63
2023-01-09T14:25:32.470Z,101105.59
2023-01-09T14:28:00.270Z,101109.84
2023-01-09T14:30:29.761Z,101102.16
2023-01-09T14:33:03.026Z,101109.91
2023-01-09T14:35:59.727Z,101108.19
2023-01-09T14:38:34.350Z,101117.63
2023-01-09T14:41:18.431Z,101118.53
2023-01-09T14:43:56.461Z,101114.19
2023-01-09T14:46:25.674Z,101126.19
2023-01-09T14:49:02.399Z,101116.72
2023-01-09T14:51:33.965Z,101130.53
2023-01-09T14:54:12.372Z,101120.22
2023-01-09T14:56:48.150Z,101121.09
2023-01-09T14:59:17.383Z,101129.69
2023-01-09T15:01:47.461Z,101131.38
2023-01-09T15:04:35.721Z,101121.03
2023-01-09T15:07:05.211Z,101118.50
2023-01-09T15:09:46.035Z,101127.94
2023-01-09T15:12:21.098Z,101121.91
2023-01-09T15:14:55.919Z,101127.94
2023-01-09T15:17:30.647Z,101129.69
2023-01-09T15:20:05.739Z,101133.97
2023-01-09T15:22:36.461Z,101127.94
2023-01-09T15:25:44.875Z,101133.09
2023-01-09T15:28:32.466Z,101136.56
2023-01-09T15:31:05.024Z,101126.22
2023-01-09T15:33:34.020Z,101127.94
2023-01-09T15:36:07.174Z,101127.03
2023-01-09T15:38:36.210Z,101130.47
2023-01-09T15:41:11.056Z,101124.44
2023-01-09T15:43:43.095Z,101127.94
2023-01-09T15:46:14.723Z,101131.31
2023-01-09T15:48:42.467Z,101130.47
2023-01-09T15:51:13.410Z,101139.06
2023-01-09T15:53:42.522Z,101127.03
2023-01-09T15:56:16.783Z,101135.66
2023-01-09T15:58:49.674Z,101129.63
2023-01-09T16:01:38.361Z,101133.91
2023-01-09T16:04:12.495Z,101134.75
2023-01-09T16:06:50.610Z,101133.06
2023-01-09T16:09:27.047Z,101133.03
2023-01-09T16:11:58.031Z,101143.38
2023-01-09T16:14:34.480Z,101129.56
2023-01-09T16:17:07.396Z,101126.16
2023-01-09T16:19:44.060Z,101132.97
2023-01-09T16:22:24.859Z,101138.19
2023-01-09T16:24:55.808Z,101133.91
2023-01-09T16:27:38.077Z,101133.00
2023-01-09T16:30:22.351Z,101135.59
2023-01-09T16:32:51.543Z,101132.09
2023-01-09T16:35:21.460Z,101131.31
2023-01-09T16:37:49.137Z,101136.47
2023-01-09T16:40:16.965Z,101133.91
2023-01-09T16:43:00.590Z,101117.56
2023-01-09T16:45:32.234Z,101124.41
2023-01-09T16:48:01.143Z,101125.28
2023-01-09T16:50:29.245Z,101119.28
2023-01-09T16:52:57.342Z,101122.75
2023-01-09T16:55:25.079Z,101115.84
2023-01-09T16:57:52.745Z,101121.84
2023-01-09T17:00:21.378Z,101114.94
2023-01-09T17:02:48.890Z,101118.41
2023-01-09T17:05:16.751Z,101120.13
2023-01-09T17:07:44.566Z,101118.38
2023-01-09T17:10:32.597Z,101127.00
2023-01-09T17:13:00.371Z,101120.16
2023-01-09T17:15:28.222Z,101131.34
2023-01-09T17:17:56.006Z,101111.53
2023-01-09T17:20:25.413Z,101124.41
2023-01-09T17:22:52.800Z,101125.31
2023-01-09T17:25:38.600Z,101136.50
2023-01-09T17:28:25.477Z,101123.56
2023-01-09T17:30:53.343Z,101125.28
2023-01-09T17:33:20.965Z,101131.22
2023-01-09T17:35:48.636Z,101127.00
2023-01-09T17:38:16.498Z,101134.75
2023-01-09T17:40:44.872Z,101128.72
2023-01-09T17:43:13.170Z,101121.00
2023-01-09T17:45:41.988Z,101127.91
2023-01-09T17:48:18.928Z,101126.19
2023-01-09T17:50:47.688Z,101125.31
2023-01-09T17:53:15.562Z,101113.25
2023-01-09T17:55:43.263Z,101126.19
2023-01-09T17:58:37.523Z,101133.06
2023-01-09T18:01:05.393Z,101119.31
2023-01-09T18:03:34.462Z,101126.16
2023-01-09T18:06:02.888Z,101122.72
2023-01-09T18:08:30.625Z,101121.88
2023-01-09T18:11:05.294Z,101127.06
2023-01-09T18:13:33.932Z,101126.19
2023-01-09T18:16:01.709Z,101126.19
2023-01-09T18:18:30.349Z,101124.47
2023-01-09T18:20:58.529Z,101123.66
2023-01-09T18:23:26.562Z,101123.63
2023-01-09T18:25:54.288Z,101121.91
2023-01-09T18:28:22.020Z,101117.59
2023-01-09T18:30:52.608Z,101102.97
2023-01-09T18:33:20.295Z,101106.38
2023-01-09T18:35:47.937Z,101119.31
2023-01-09T18:38:16.546Z,101114.13
2023-01-09T18:40:44.990Z,101112.41
2023-01-09T18:43:12.822Z,101109.00
2023-01-09T18:45:41.109Z,101115.00
2023-01-09T18:48:13.964Z,101099.50
2023-01-09T18:50:42.044Z,101109.81
2023-01-09T18:53:09.727Z,101101.22
2023-01-09T18:55:37.871Z,101101.22
2023-01-09T18:58:05.938Z,101105.50
2023-01-09T19:00:34.055Z,101098.66
2023-01-09T19:03:02.043Z,101096.91
2023-01-09T19:05:32.519Z,101102.06
2023-01-09T19:08:00.898Z,101102.03
2023-01-09T19:10:28.652Z,101097.72
2023-01-09T19:12:56.583Z,101105.47
2023-01-09T19:15:24.568Z,101102.88
2023-01-09T19:17:52.939Z,101096.84
2023-01-09T19:20:20.719Z,101099.41
2023-01-09T19:22:48.833Z,101095.13
2023-01-09T19:25:16.858Z,101096.81
2023-01-09T19:27:44.631Z,101094.22
2023-01-09T19:30:13.063Z,101082.19
2023-01-09T19:32:40.649Z,101089.91
2023-01-09T19:35:09.004Z,101092.50
2023-01-09T19:37:37.371Z,101090.75
2023-01-09T19:40:06.911Z,101091.66
2023-01-09T19:42:35.205Z,101088.16
2023-01-09T19:45:04.255Z,101082.16
2023-01-09T19:47:36.208Z,101084.72
2023-01-09T19:50:05.766Z,101091.56
2023-01-09T19:52:33.304Z,101091.56
2023-01-09T19:55:01.412Z,101085.56
2023-01-09T19:57:29.059Z,101080.41
2023-01-09T19:59:57.659Z,101087.31
2023-01-09T20:02:25.542Z,101094.16
2023-01-09T20:04:53.873Z,101081.19
2023-01-09T20:07:21.634Z,101076.91
2023-01-09T20:09:49.673Z,101076.91
2023-01-09T20:12:17.252Z,101076.84
2023-01-09T20:14:45.351Z,101076.03
2023-01-09T20:17:13.355Z,101072.56
2023-01-09T20:19:41.368Z,101075.13
2023-01-09T20:22:08.892Z,101076.03
2023-01-09T20:24:37.180Z,101066.50
2023-01-09T20:27:05.347Z,101062.28
2023-01-09T20:29:33.291Z,101070.84
2023-01-09T20:32:01.446Z,101065.69
2023-01-09T20:34:28.946Z,101063.09
2023-01-09T20:36:56.545Z,101067.41
2023-01-09T20:39:24.106Z,101059.63
2023-01-09T20:41:52.933Z,101057.91
2023-01-09T20:44:20.657Z,101068.25
2023-01-09T20:46:48.731Z,101067.34
2023-01-09T20:49:20.618Z,101075.09
2023-01-09T20:51:50.691Z,101077.69
2023-01-09T20:54:21.260Z,101076.81
2023-01-09T20:56:49.635Z,101078.56
2023-01-09T20:59:22.335Z,101073.34
2023-01-09T21:01:50.964Z,101079.34
2023-01-09T21:04:18.751Z,101079.34
2023-01-09T21:06:48.214Z,101075.91
2023-01-09T21:09:17.637Z,101079.34
2023-01-09T21:11:45.199Z,101085.38
2023-01-09T21:14:12.646Z,101088.78
2023-01-09T21:16:40.254Z,101087.97
2023-01-09T21:19:09.234Z,101085.38
2023-01-09T21:21:38.167Z,101079.34
2023-01-09T21:24:08.155Z,101082.75
2023-01-09T21:26:35.651Z,101081.00
2023-01-09T21:29:08.307Z,101085.34
2023-01-09T21:31:36.255Z,101073.25
2023-01-09T21:34:07.325Z,101077.53
2023-01-09T21:36:36.389Z,101075.00
2023-01-09T21:39:07.601Z,101066.38
2023-01-09T21:41:54.548Z,101065.50
2023-01-09T21:44:40.664Z,101071.56
2023-01-09T21:47:08.577Z,101080.16
2023-01-09T21:49:40.676Z,101075.00
2023-01-09T21:52:12.879Z,101078.44
2023-01-09T21:54:41.306Z,101077.59
2023-01-09T21:57:09.164Z,101087.06
2023-01-09T21:59:36.898Z,101074.16
2023-01-09T22:02:04.368Z,101077.53
2023-01-09T22:04:32.463Z,101078.41
2023-01-09T22:07:00.041Z,101080.16
2023-01-09T22:09:27.839Z,101084.50
2023-01-09T22:11:56.083Z,101077.53
2023-01-09T22:14:23.826Z,101086.16
2023-01-09T22:16:51.548Z,101085.31
2023-01-09T22:19:19.169Z,101093.09
2023-01-09T22:21:47.127Z,101086.16
2023-01-09T22:24:17.137Z,101087.94
2023-01-09T22:26:45.242Z,101090.47
2023-01-09T22:29:12.797Z,101093.94
2023-01-09T22:31:40.833Z,101087.91
2023-01-09T22:34:16.701Z,101097.38
2023-01-09T22:36:45.905Z,101102.53
2023-01-09T22:39:15.605Z,101102.56
2023-01-09T22:41:43.494Z,101102.59
2023-01-09T22:44:12.288Z,101103.44
2023-01-09T22:46:40.115Z,101111.22
2023-01-09T22:49:07.656Z,101112.94
2023-01-09T22:51:35.429Z,101114.66
2023-01-09T22:54:02.935Z,101112.06
2023-01-09T22:56:32.245Z,101112.06
2023-01-09T22:59:01.076Z,101103.38
2023-01-09T23:01:29.448Z,101108.59
2023-01-09T23:03:56.945Z,101103.41
2023-01-09T23:06:25.256Z,101103.41
2023-01-09T23:08:53.272Z,101102.56
2023-01-09T23:11:45.712Z,101101.69
2023-01-09T23:14:13.703Z,101104.28
2023-01-09T23:16:41.699Z,101106.91
2023-01-09T23:19:14.390Z,101106.03
2023-01-09T23:21:43.270Z,101112.94
2023-01-09T23:24:12.322Z,101112.94
2023-01-09T23:26:39.865Z,101104.31
2023-01-09T23:29:08.078Z,101118.09
2023-01-09T23:31:36.656Z,101107.72
2023-01-09T23:34:04.859Z,101105.19
2023-01-09T23:36:32.452Z,101111.22
2023-01-09T23:39:00.355Z,101109.41
2023-01-09T23:41:48.001Z,101107.72
2023-01-09T23:44:15.467Z,101105.09
2023-01-09T23:46:42.959Z,101108.59
2023-01-09T23:49:11.025Z,101103.38
2023-01-09T23:51:38.616Z,101105.94
2023-01-09T23:54:06.397Z,101114.59
2023-01-09T23:56:34.645Z,101111.06
2023-01-09T23:59:04.665Z,101106.75
